createdAt,value
2019-03-12T00:00:38.790Z,77.90
2019-03-12T00:03:05.073Z,77.90
2019-03-12T00:05:32.383Z,77.70
2019-03-12T00:07:58.608Z,77.70
2019-03-12T00:10:24.904Z,77.70
2019-03-12T00:12:51.217Z,77.90
2019-03-12T00:15:17.754Z,77.60
2019-03-12T00:17:44.137Z,78.40
2019-03-12T00:20:10.521Z,77.70
2019-03-12T00:22:36.847Z,77.90
2019-03-12T00:25:03.534Z,77.80
2019-03-12T00:27:29.838Z,77.90
2019-03-12T00:29:56.149Z,77.90
2019-03-12T00:32:22.458Z,78.20
2019-03-12T00:34:48.780Z,78.20
2019-03-12T00:37:15.098Z,78.30
2019-03-12T00:39:41.409Z,78.70
2019-03-12T00:42:07.701Z,78.80
2019-03-12T00:44:34.010Z,79.10
2019-03-12T00:47:00.313Z,79.20
2019-03-12T00:49:26.888Z,79.40
2019-03-12T00:51:53.208Z,79.70
2019-03-12T00:54:19.510Z,79.70
2019-03-12T00:56:45.797Z,79.90
2019-03-12T00:59:12.395Z,80.00
2019-03-12T01:01:38.683Z,80.20
2019-03-12T01:04:04.988Z,80.20
2019-03-12T01:06:31.378Z,80.60
2019-03-12T01:08:57.700Z,80.50
2019-03-12T01:11:23.994Z,80.50
2019-03-12T01:13:50.560Z,80.80
2019-03-12T01:16:17.130Z,80.80
2019-03-12T01:18:43.449Z,80.80
2019-03-12T01:21:09.734Z,81.00
2019-03-12T01:23:36.143Z,80.60
2019-03-12T01:26:02.493Z,80.60
2019-03-12T01:28:28.785Z,80.60
2019-03-12T01:30:55.089Z,80.40
2019-03-12T01:33:21.401Z,80.70
2019-03-12T01:35:47.685Z,80.60
2019-03-12T01:38:14.040Z,80.60
2019-03-12T01:40:40.282Z,80.30
2019-03-12T01:43:06.694Z,80.40
2019-03-12T01:45:32.991Z,80.50
2019-03-12T01:47:59.287Z,80.80
2019-03-12T01:50:25.575Z,80.60
2019-03-12T01:52:51.888Z,80.20
2019-03-12T01:55:18.277Z,80.20
2019-03-12T01:57:44.777Z,80.20
2019-03-12T02:00:15.543Z,80.00
2019-03-12T02:02:41.876Z,80.20
2019-03-12T02:05:08.452Z,80.30
2019-03-12T02:07:34.798Z,80.30
2019-03-12T02:10:01.120Z,80.40
2019-03-12T02:12:27.709Z,80.30
2019-03-12T02:14:54.017Z,80.00
2019-03-12T02:17:20.331Z,80.00
2019-03-12T02:19:46.641Z,80.50
2019-03-12T02:22:12.922Z,80.50
2019-03-12T02:24:51.740Z,80.10
2019-03-12T02:27:07.822Z,79.80
2019-03-12T02:29:34.226Z,80.20
2019-03-12T02:32:00.595Z,80.10
2019-03-12T02:34:27.000Z,80.10
2019-03-12T02:36:53.326Z,79.60
2019-03-12T02:39:19.732Z,80.00
2019-03-12T02:41:46.153Z,79.60
2019-03-12T02:44:12.590Z,79.70
2019-03-12T02:46:38.887Z,79.80
2019-03-12T02:49:09.059Z,79.80
2019-03-12T02:51:33.297Z,79.80
2019-03-12T02:53:59.616Z,79.10
2019-03-12T02:56:25.921Z,79.40
2019-03-12T02:58:52.214Z,79.50
2019-03-12T03:01:18.539Z,79.40
2019-03-12T03:03:44.845Z,79.10
2019-03-12T03:06:22.121Z,79.40
2019-03-12T03:08:48.399Z,79.40
2019-03-12T03:11:14.733Z,79.50
2019-03-12T03:13:41.040Z,79.40
2019-03-12T03:16:07.741Z,79.70
2019-03-12T03:18:34.058Z,79.70
2019-03-12T03:21:00.370Z,79.40
2019-03-12T03:23:26.660Z,79.70
2019-03-12T03:25:53.060Z,79.60
2019-03-12T03:28:19.492Z,79.20
2019-03-12T03:30:45.783Z,79.40
2019-03-12T03:33:12.080Z,79.50
2019-03-12T03:35:38.370Z,79.50
2019-03-12T03:38:04.838Z,79.70
2019-03-12T03:40:31.119Z,79.80
2019-03-12T03:42:57.539Z,80.50
2019-03-12T03:45:23.863Z,79.80
2019-03-12T03:47:50.167Z,80.20
2019-03-12T03:50:16.879Z,80.20
2019-03-12T03:52:43.187Z,80.00
2019-03-12T03:55:12.788Z,79.70
2019-03-12T03:57:39.286Z,79.80
2019-03-12T04:00:21.952Z,80.00
2019-03-12T04:02:48.419Z,80.20
2019-03-12T04:05:14.656Z,80.20
2019-03-12T04:07:41.003Z,80.50
2019-03-12T04:10:09.123Z,80.50
2019-03-12T04:12:35.406Z,80.60
2019-03-12T04:15:01.901Z,80.70
2019-03-12T04:17:28.231Z,80.90
2019-03-12T04:19:54.519Z,81.30
2019-03-12T04:22:20.828Z,81.20
2019-03-12T04:24:47.132Z,81.10
2019-03-12T04:27:13.444Z,81.00
2019-03-12T04:29:39.726Z,81.00
2019-03-12T04:32:06.046Z,81.00
2019-03-12T04:34:32.327Z,81.40
2019-03-12T04:36:58.872Z,81.20
2019-03-12T04:39:25.168Z,81.30
2019-03-12T04:41:51.468Z,81.70
2019-03-12T04:44:17.770Z,81.20
2019-03-12T04:46:44.148Z,81.70
2019-03-12T04:49:10.473Z,81.90
2019-03-12T04:51:36.803Z,81.80
2019-03-12T04:54:03.328Z,81.70
2019-03-12T04:56:29.636Z,81.70
2019-03-12T04:58:56.036Z,81.50
2019-03-12T05:01:22.339Z,81.80
2019-03-12T05:03:48.903Z,82.10
2019-03-12T05:06:15.318Z,81.40
2019-03-12T05:08:41.622Z,81.60
2019-03-12T05:11:08.036Z,81.90
2019-03-12T05:13:34.332Z,82.20
2019-03-12T05:16:00.625Z,82.40
2019-03-12T05:18:27.029Z,82.30
2019-03-12T05:20:53.348Z,82.10
2019-03-12T05:23:19.659Z,82.40
2019-03-12T05:25:46.194Z,82.50
2019-03-12T05:28:12.516Z,82.70
2019-03-12T05:30:38.810Z,82.80
2019-03-12T05:33:05.098Z,82.70
2019-03-12T05:35:31.414Z,82.90
2019-03-12T05:37:57.690Z,82.70
2019-03-12T05:40:23.991Z,83.00
2019-03-12T05:42:50.305Z,82.80
2019-03-12T05:45:17.210Z,82.90
2019-03-12T05:47:43.803Z,82.80
2019-03-12T05:50:15.913Z,82.50
2019-03-12T05:52:42.654Z,82.90
2019-03-12T05:55:10.832Z,83.20
2019-03-12T05:57:37.124Z,83.10
2019-03-12T06:00:07.229Z,83.10
2019-03-12T06:02:33.532Z,83.00
2019-03-12T06:04:59.824Z,82.90
2019-03-12T06:07:26.131Z,82.70
2019-03-12T06:09:52.713Z,82.80
2019-03-12T06:12:19.206Z,82.80
2019-03-12T06:14:45.520Z,82.70
2019-03-12T06:17:11.825Z,82.80
2019-03-12T06:19:38.117Z,82.50
2019-03-12T06:22:04.546Z,82.80
2019-03-12T06:24:30.854Z,82.80
2019-03-12T06:26:57.454Z,82.70
2019-03-12T06:29:24.057Z,82.70
2019-03-12T06:31:52.275Z,82.60
2019-03-12T06:34:20.458Z,83.00
2019-03-12T06:36:51.386Z,83.10
2019-03-12T06:39:22.640Z,82.70
2019-03-12T06:41:56.565Z,82.80
2019-03-12T06:44:33.477Z,82.80
2019-03-12T06:47:01.952Z,83.00
2019-03-12T06:49:45.019Z,82.70
2019-03-12T06:52:18.908Z,82.80
2019-03-12T06:54:56.069Z,82.50
2019-03-12T06:57:24.285Z,82.70
2019-03-12T06:59:52.532Z,82.50
2019-03-12T07:02:37.076Z,82.80
2019-03-12T07:05:06.310Z,83.00
2019-03-12T07:07:34.499Z,82.90
2019-03-12T07:10:02.653Z,83.00
2019-03-12T07:12:30.878Z,82.60
2019-03-12T07:15:04.879Z,82.80
2019-03-12T07:17:33.087Z,82.30
2019-03-12T07:20:17.862Z,82.40
2019-03-12T07:23:02.594Z,82.90
2019-03-12T07:25:50.529Z,82.50
2019-03-12T07:28:34.107Z,82.30
2019-03-12T07:31:02.325Z,82.60
2019-03-12T07:33:30.513Z,82.20
2019-03-12T07:36:16.585Z,82.80
2019-03-12T07:39:01.716Z,82.00
2019-03-12T07:41:45.035Z,82.80
2019-03-12T07:44:15.949Z,83.00
2019-03-12T07:46:50.052Z,83.30
2019-03-12T07:49:30.073Z,82.90
2019-03-12T07:51:58.231Z,82.20
2019-03-12T07:54:26.427Z,82.50
2019-03-12T07:57:09.704Z,82.60
2019-03-12T07:59:46.849Z,82.30
2019-03-12T08:02:23.758Z,82.50
2019-03-12T08:04:54.889Z,82.50
2019-03-12T08:07:23.121Z,82.70
2019-03-12T08:09:54.253Z,81.30
2019-03-12T08:12:28.175Z,82.40
2019-03-12T08:15:22.508Z,82.20
2019-03-12T08:17:52.206Z,82.10
2019-03-12T08:20:20.408Z,80.40
2019-03-12T08:22:48.612Z,80.00
2019-03-12T08:25:20.054Z,79.10
2019-03-12T08:27:54.207Z,79.60
2019-03-12T08:30:28.139Z,79.70
2019-03-12T08:32:59.545Z,80.20
2019-03-12T08:35:39.906Z,79.20
2019-03-12T08:38:08.383Z,79.20
2019-03-12T08:40:52.385Z,79.50
2019-03-12T08:43:18.415Z,79.70
2019-03-12T08:45:58.465Z,78.00
2019-03-12T08:48:32.715Z,78.60
2019-03-12T08:51:05.308Z,76.00
2019-03-12T08:53:33.650Z,77.80
2019-03-12T08:56:04.637Z,77.20
2019-03-12T08:58:47.995Z,78.00
2019-03-12T09:01:19.227Z,77.30
2019-03-12T09:03:56.267Z,77.60
2019-03-12T09:06:42.782Z,74.50
2019-03-12T09:09:23.088Z,76.40
2019-03-12T09:11:57.245Z,75.90
2019-03-12T09:14:25.501Z,75.70
2019-03-12T09:16:56.424Z,76.40
2019-03-12T09:19:24.603Z,74.30
2019-03-12T09:21:58.813Z,73.80
2019-03-12T09:24:36.103Z,71.70
2019-03-12T09:27:10.142Z,73.90
2019-03-12T09:29:44.163Z,74.20
2019-03-12T09:32:12.461Z,74.80
2019-03-12T09:34:46.629Z,74.40
2019-03-12T09:37:17.526Z,74.00
2019-03-12T09:39:51.459Z,72.00
2019-03-12T09:42:28.731Z,72.00
2019-03-12T09:45:14.809Z,72.50
2019-03-12T09:47:48.714Z,72.70
2019-03-12T09:50:25.898Z,71.70
2019-03-12T09:52:57.117Z,68.40
2019-03-12T09:55:31.071Z,71.70
2019-03-12T09:58:14.081Z,70.70
2019-03-12T10:00:42.273Z,68.50
2019-03-12T10:03:16.482Z,70.10
2019-03-12T10:05:47.384Z,71.50
2019-03-12T10:08:32.212Z,68.80
2019-03-12T10:11:00.439Z,70.10
2019-03-12T10:13:31.315Z,68.30
2019-03-12T10:15:59.782Z,67.40
2019-03-12T10:18:30.583Z,65.00
2019-03-12T10:21:01.839Z,64.80
2019-03-12T10:23:46.621Z,66.10
2019-03-12T10:26:17.531Z,67.10
2019-03-12T10:28:48.797Z,64.20
2019-03-12T10:31:25.767Z,65.10
2019-03-12T10:34:05.864Z,66.30
2019-03-12T10:36:40.177Z,64.40
2019-03-12T10:39:45.554Z,65.60
2019-03-12T10:42:30.111Z,65.10
2019-03-12T10:45:07.040Z,64.00
2019-03-12T10:47:37.974Z,65.40
2019-03-12T10:50:06.869Z,63.30
2019-03-12T10:52:33.140Z,66.20
2019-03-12T10:55:12.107Z,64.00
2019-03-12T10:57:27.947Z,62.90
2019-03-12T10:59:54.237Z,62.90
2019-03-12T11:02:20.661Z,63.70
2019-03-12T11:04:46.933Z,62.60
2019-03-12T11:07:16.830Z,63.20
2019-03-12T11:09:41.336Z,64.70
2019-03-12T11:12:07.712Z,64.40
2019-03-12T11:14:34.102Z,64.30
2019-03-12T11:17:00.693Z,62.30
2019-03-12T11:19:27.099Z,63.30
2019-03-12T11:21:53.394Z,63.90
2019-03-12T11:24:19.697Z,63.00
2019-03-12T11:26:45.996Z,60.70
2019-03-12T11:29:12.282Z,62.20
2019-03-12T11:31:38.584Z,60.80
2019-03-12T11:34:04.869Z,61.40
2019-03-12T11:36:31.368Z,63.10
2019-03-12T11:38:57.790Z,62.00
2019-03-12T11:41:24.302Z,62.70
2019-03-12T11:43:50.578Z,61.50
2019-03-12T11:46:16.871Z,62.40
2019-03-12T11:48:43.203Z,60.00
2019-03-12T11:51:09.674Z,60.00
2019-03-12T11:53:35.974Z,60.00
2019-03-12T11:56:02.716Z,57.40
2019-03-12T11:58:29.173Z,57.90
2019-03-12T12:00:57.621Z,58.50
2019-03-12T12:03:24.115Z,57.80
2019-03-12T12:05:50.790Z,58.80
2019-03-12T12:08:17.114Z,58.20
2019-03-12T12:10:43.534Z,58.10
2019-03-12T12:13:09.945Z,58.20
2019-03-12T12:15:36.261Z,58.20
2019-03-12T12:18:04.051Z,57.80
2019-03-12T12:20:30.645Z,57.70
2019-03-12T12:22:56.891Z,57.20
2019-03-12T12:25:23.265Z,54.80
2019-03-12T12:27:49.659Z,58.00
2019-03-12T12:30:17.870Z,59.00
2019-03-12T12:32:44.172Z,58.80
2019-03-12T12:35:10.559Z,57.20
2019-03-12T12:37:36.942Z,53.70
2019-03-12T12:40:09.744Z,54.10
2019-03-12T12:42:36.335Z,54.90
2019-03-12T12:45:05.604Z,57.00
2019-03-12T12:47:31.938Z,55.70
2019-03-12T12:49:58.217Z,54.70
2019-03-12T12:52:24.502Z,56.20
2019-03-12T12:54:50.810Z,56.00
2019-03-12T12:57:17.099Z,57.20
2019-03-12T12:59:43.385Z,56.10
2019-03-12T13:02:09.692Z,53.30
2019-03-12T13:04:35.988Z,56.40
2019-03-12T13:07:02.300Z,56.10
2019-03-12T13:09:28.549Z,54.70
2019-03-12T13:11:54.839Z,54.30
2019-03-12T13:14:21.144Z,55.00
2019-03-12T13:16:47.453Z,54.60
2019-03-12T13:19:13.761Z,54.90
2019-03-12T13:21:40.038Z,52.80
2019-03-12T13:24:06.332Z,51.20
2019-03-12T13:26:32.638Z,54.20
2019-03-12T13:28:58.922Z,51.70
2019-03-12T13:31:25.200Z,52.80
2019-03-12T13:33:51.499Z,54.00
2019-03-12T13:36:18.069Z,54.30
2019-03-12T13:38:46.628Z,54.00
2019-03-12T13:41:12.569Z,54.80
2019-03-12T13:43:38.965Z,54.00
2019-03-12T13:46:05.244Z,55.60
2019-03-12T13:48:31.543Z,53.20
2019-03-12T13:50:57.930Z,52.90
2019-03-12T13:53:24.214Z,52.20
2019-03-12T13:55:50.561Z,53.90
2019-03-12T13:58:16.903Z,52.90
2019-03-12T14:00:43.174Z,54.60
2019-03-12T14:03:09.578Z,54.20
2019-03-12T14:05:35.856Z,54.30
2019-03-12T14:08:02.371Z,54.30
2019-03-12T14:10:28.646Z,53.90
2019-03-12T14:12:55.750Z,52.60
2019-03-12T14:15:27.713Z,51.00
2019-03-12T14:17:54.309Z,52.80
2019-03-12T14:20:42.554Z,53.00
2019-03-12T14:23:11.384Z,53.80
2019-03-12T14:25:37.783Z,52.80
2019-03-12T14:28:04.269Z,53.50
2019-03-12T14:30:30.617Z,53.90
2019-03-12T14:32:57.029Z,53.00
2019-03-12T14:35:23.499Z,53.50
2019-03-12T14:37:49.898Z,52.20
2019-03-12T14:40:16.497Z,51.40
2019-03-12T14:42:42.792Z,52.40
2019-03-12T14:45:12.325Z,48.80
2019-03-12T14:47:38.724Z,51.60
2019-03-12T14:50:11.391Z,52.50
2019-03-12T14:52:38.492Z,53.70
2019-03-12T14:55:05.574Z,52.60
2019-03-12T14:57:31.963Z,54.10
2019-03-12T14:59:58.337Z,53.90
2019-03-12T15:02:24.775Z,54.70
2019-03-12T15:04:51.084Z,52.70
2019-03-12T15:07:17.362Z,51.50
2019-03-12T15:09:43.666Z,53.10
2019-03-12T15:12:11.867Z,51.70
2019-03-12T15:14:38.441Z,53.20
2019-03-12T15:17:04.716Z,53.10
2019-03-12T15:19:31.013Z,51.80
2019-03-12T15:21:57.322Z,51.20
2019-03-12T15:24:23.618Z,51.30
2019-03-12T15:26:49.923Z,52.10
2019-03-12T15:29:16.203Z,51.50
2019-03-12T15:31:42.509Z,51.40
2019-03-12T15:34:08.789Z,47.50
2019-03-12T15:36:35.153Z,51.90
2019-03-12T15:39:01.575Z,51.40
2019-03-12T15:41:27.879Z,52.00
2019-03-12T15:43:54.186Z,52.00
2019-03-12T15:46:20.487Z,49.70
2019-03-12T15:48:46.955Z,48.70
2019-03-12T15:51:13.268Z,47.80
2019-03-12T15:53:39.839Z,48.30
2019-03-12T15:56:06.245Z,50.90
2019-03-12T15:58:32.570Z,50.10
2019-03-12T16:00:58.862Z,51.00
2019-03-12T16:03:25.143Z,52.30
2019-03-12T16:05:51.440Z,52.10
2019-03-12T16:08:17.706Z,50.20
2019-03-12T16:10:56.897Z,52.20
2019-03-12T16:13:12.080Z,52.60
2019-03-12T16:15:38.653Z,53.30
2019-03-12T16:18:05.249Z,53.10
2019-03-12T16:20:31.543Z,51.90
2019-03-12T16:22:57.865Z,52.80
2019-03-12T16:25:24.173Z,52.60
2019-03-12T16:27:50.459Z,52.50
2019-03-12T16:30:17.984Z,51.90
2019-03-12T16:32:44.267Z,51.30
2019-03-12T16:35:10.770Z,52.20
2019-03-12T16:37:37.043Z,51.50
2019-03-12T16:40:14.356Z,52.30
2019-03-12T16:42:43.589Z,50.80
2019-03-12T16:45:11.469Z,52.20
2019-03-12T16:47:37.791Z,52.60
2019-03-12T16:50:07.888Z,50.70
2019-03-12T16:52:34.167Z,52.70
2019-03-12T16:55:00.495Z,52.30
2019-03-12T16:57:26.832Z,51.50
2019-03-12T16:59:53.097Z,51.10
2019-03-12T17:02:19.434Z,51.70
2019-03-12T17:04:45.742Z,51.60
2019-03-12T17:07:12.049Z,51.80
2019-03-12T17:09:38.325Z,52.00
2019-03-12T17:12:04.758Z,50.50
2019-03-12T17:14:38.656Z,50.80
2019-03-12T17:16:59.292Z,51.00
2019-03-12T17:19:25.557Z,50.40
2019-03-12T17:21:51.857Z,50.50
2019-03-12T17:24:18.151Z,50.50
2019-03-12T17:26:44.447Z,52.20
2019-03-12T17:29:10.743Z,51.50
2019-03-12T17:31:37.072Z,51.20
2019-03-12T17:34:03.395Z,52.00
2019-03-12T17:36:29.703Z,51.80
2019-03-12T17:38:55.987Z,52.50
2019-03-12T17:41:22.285Z,52.00
2019-03-12T17:43:48.608Z,49.80
2019-03-12T17:46:14.916Z,52.00
2019-03-12T17:48:41.462Z,51.60
2019-03-12T17:51:07.693Z,51.40
2019-03-12T17:53:33.988Z,50.20
2019-03-12T17:56:00.283Z,52.60
2019-03-12T17:58:26.601Z,51.00
2019-03-12T18:00:52.971Z,51.70
2019-03-12T18:03:19.240Z,52.50
2019-03-12T18:05:45.544Z,52.00
2019-03-12T18:08:11.941Z,51.80
2019-03-12T18:10:38.254Z,51.30
2019-03-12T18:13:04.545Z,52.30
2019-03-12T18:15:31.003Z,51.30
2019-03-12T18:17:57.292Z,51.30
2019-03-12T18:20:23.692Z,50.50
2019-03-12T18:22:50.113Z,51.20
2019-03-12T18:25:26.337Z,52.00
2019-03-12T18:27:52.658Z,50.30
2019-03-12T18:30:19.231Z,50.20
2019-03-12T18:32:45.755Z,52.00
2019-03-12T18:35:12.985Z,51.30
2019-03-12T18:37:39.382Z,52.10
2019-03-12T18:40:20.168Z,51.00
2019-03-12T18:42:46.976Z,53.20
2019-03-12T18:45:25.157Z,53.10
2019-03-12T18:47:51.453Z,53.00
2019-03-12T18:50:18.412Z,53.00
2019-03-12T18:52:44.731Z,51.90
2019-03-12T18:55:32.704Z,53.90
2019-03-12T18:57:59.749Z,54.20
2019-03-12T19:00:26.056Z,53.70
2019-03-12T19:02:52.342Z,54.80
2019-03-12T19:05:18.644Z,55.30
2019-03-12T19:07:44.927Z,56.00
2019-03-12T19:10:13.052Z,55.70
2019-03-12T19:12:39.518Z,56.70
2019-03-12T19:15:10.515Z,57.20
2019-03-12T19:17:36.812Z,57.30
2019-03-12T19:20:14.348Z,58.00
2019-03-12T19:22:40.737Z,58.00
2019-03-12T19:25:18.775Z,58.50
2019-03-12T19:27:45.307Z,58.90
2019-03-12T19:30:18.130Z,59.20
2019-03-12T19:32:46.556Z,61.00
2019-03-12T19:35:20.900Z,60.10
2019-03-12T19:37:47.260Z,60.50
2019-03-12T19:40:26.514Z,61.10
2019-03-12T19:42:53.031Z,60.80
2019-03-12T19:45:19.454Z,62.30
2019-03-12T19:47:45.765Z,62.90
2019-03-12T19:50:19.817Z,62.90
2019-03-12T19:52:46.230Z,63.30
2019-03-12T19:55:18.445Z,63.70
2019-03-12T19:57:44.747Z,63.90
2019-03-12T20:00:15.881Z,64.80
2019-03-12T20:02:44.302Z,64.80
2019-03-12T20:05:11.184Z,65.30
2019-03-12T20:07:37.589Z,66.10
2019-03-12T20:10:19.775Z,66.70
2019-03-12T20:13:06.333Z,66.10
2019-03-12T20:15:45.212Z,66.40
2019-03-12T20:18:18.031Z,67.30
2019-03-12T20:20:56.975Z,67.60
2019-03-12T20:23:46.413Z,68.60
2019-03-12T20:26:37.379Z,71.00
2019-03-12T20:29:07.440Z,71.30
2019-03-12T20:31:55.541Z,71.90
2019-03-12T20:34:45.420Z,73.10
2019-03-12T20:37:44.006Z,74.20
2019-03-12T20:40:36.543Z,74.90
2019-03-12T20:43:24.513Z,75.90
2019-03-12T20:46:28.020Z,76.50
2019-03-12T20:49:16.005Z,77.00
2019-03-12T20:52:19.026Z,77.60
2019-03-12T20:54:51.968Z,77.90
2019-03-12T20:57:41.555Z,78.90
2019-03-12T21:00:31.681Z,79.20
2019-03-12T21:03:25.157Z,79.30
2019-03-12T21:06:16.623Z,79.40
2019-03-12T21:09:10.745Z,79.90
2019-03-12T21:11:43.687Z,80.30
2019-03-12T21:14:46.826Z,80.30
2019-03-12T21:17:33.255Z,80.80
2019-03-12T21:20:24.383Z,80.90
2019-03-12T21:22:57.550Z,81.10
2019-03-12T21:25:30.341Z,81.30
2019-03-12T21:28:27.422Z,81.20
2019-03-12T21:30:54.090Z,81.30
2019-03-12T21:33:20.404Z,81.40
2019-03-12T21:35:46.699Z,81.90
2019-03-12T21:38:13.256Z,82.30
2019-03-12T21:40:39.570Z,82.30
2019-03-12T21:43:05.846Z,82.60
2019-03-12T21:45:32.165Z,82.50
2019-03-12T21:47:58.436Z,82.60
2019-03-12T21:50:24.734Z,82.30
2019-03-12T21:52:51.040Z,82.00
2019-03-12T21:55:17.362Z,81.80
2019-03-12T21:57:43.648Z,81.90
2019-03-12T22:00:15.741Z,81.60
2019-03-12T22:02:42.316Z,81.70
2019-03-12T22:05:08.827Z,81.80
2019-03-12T22:07:35.119Z,81.90
2019-03-12T22:10:02.245Z,81.50
2019-03-12T22:12:28.587Z,81.90
2019-03-12T22:14:54.868Z,82.30
2019-03-12T22:17:21.274Z,82.30
2019-03-12T22:19:47.573Z,83.20
2019-03-12T22:22:18.607Z,82.40
2019-03-12T22:24:45.164Z,82.50
2019-03-12T22:27:11.809Z,81.80
2019-03-12T22:29:38.127Z,81.70
2019-03-12T22:32:04.682Z,81.90
2019-03-12T22:34:31.010Z,82.00
2019-03-12T22:36:57.689Z,82.00
2019-03-12T22:39:23.994Z,81.90
2019-03-12T22:41:50.294Z,82.20
2019-03-12T22:44:16.586Z,82.50
2019-03-12T22:46:42.881Z,82.70
2019-03-12T22:49:09.184Z,82.90
2019-03-12T22:51:35.755Z,82.90
2019-03-12T22:54:02.182Z,83.10
2019-03-12T22:56:28.487Z,83.10
2019-03-12T22:58:54.801Z,83.00
2019-03-12T23:01:21.320Z,83.00
2019-03-12T23:03:47.618Z,83.20
2019-03-12T23:06:14.014Z,83.00
2019-03-12T23:08:40.314Z,83.00
2019-03-12T23:11:06.592Z,83.00
2019-03-12T23:13:33.029Z,82.60
2019-03-12T23:15:59.740Z,83.10
2019-03-12T23:18:26.041Z,82.90
2019-03-12T23:20:52.358Z,82.80
2019-03-12T23:23:18.758Z,82.70
2019-03-12T23:25:45.244Z,82.50
2019-03-12T23:28:11.769Z,81.90
2019-03-12T23:30:38.074Z,82.00
2019-03-12T23:33:04.503Z,82.00
2019-03-12T23:35:31.005Z,82.20
2019-03-12T23:37:57.461Z,82.20
2019-03-12T23:40:23.755Z,82.30
2019-03-12T23:42:50.044Z,82.20
2019-03-12T23:45:16.708Z,82.00
2019-03-12T23:47:43.429Z,82.20
2019-03-12T23:50:11.327Z,82.10
2019-03-12T23:52:37.833Z,82.20
2019-03-12T23:55:06.942Z,81.70
2019-03-12T23:57:33.352Z,81.60
2019-03-12T23:59:59.654Z,81.20
